createdAt,value
2022-08-11T00:01:07.595Z,8.30
2022-08-11T00:03:43.823Z,10.60
2022-08-11T00:06:14.613Z,8.63
2022-08-11T00:08:46.115Z,9.13
2022-08-11T00:11:17.148Z,9.80
2022-08-11T00:13:48.912Z,11.33
2022-08-11T00:16:22.794Z,11.10
2022-08-11T00:18:55.542Z,9.97
2022-08-11T00:22:03.133Z,11.17
2022-08-11T00:24:17.733Z,11.20
2022-08-11T00:26:50.252Z,10.40
2022-08-11T00:29:19.051Z,10.23
2022-08-11T00:31:51.849Z,10.07
2022-08-11T00:34:23.995Z,9.53
2022-08-11T00:36:55.054Z,12.27
2022-08-11T00:39:29.063Z,9.43
2022-08-11T00:42:19.351Z,9.43
2022-08-11T00:45:03.762Z,11.60
2022-08-11T00:47:58.405Z,8.77
2022-08-11T00:50:41.821Z,10.10
2022-08-11T00:53:32.004Z,13.50
2022-08-11T00:56:48.992Z,9.77
2022-08-11T00:59:55.959Z,13.83
2022-08-11T01:02:48.076Z,13.67
2022-08-11T01:05:38.805Z,11.43
2022-08-11T01:08:43.735Z,12.10
2022-08-11T01:11:55.939Z,14.37
2022-08-11T01:15:25.109Z,13.63
2022-08-11T01:18:44.806Z,13.60
2022-08-11T01:22:08.414Z,15.37
2022-08-11T01:25:27.671Z,13.43
2022-08-11T01:28:54.008Z,13.33
2022-08-11T01:32:17.722Z,18.30
2022-08-11T01:35:37.415Z,14.33
2022-08-11T01:38:59.848Z,15.77
2022-08-11T01:42:23.710Z,13.03
2022-08-11T01:45:29.003Z,16.77
2022-08-11T01:48:05.194Z,15.77
2022-08-11T01:50:49.591Z,17.77
2022-08-11T01:53:31.925Z,16.30
2022-08-11T01:56:18.123Z,15.70
2022-08-11T01:58:51.309Z,16.33
2022-08-11T02:01:40.836Z,17.80
2022-08-11T02:04:20.675Z,18.90
2022-08-11T02:06:58.420Z,17.67
2022-08-11T02:09:49.744Z,16.30
2022-08-11T02:12:39.046Z,18.37
2022-08-11T02:15:16.754Z,19.50
2022-08-11T02:17:58.362Z,18.03
2022-08-11T02:20:49.295Z,17.43
2022-08-11T02:24:05.912Z,19.67
2022-08-11T02:26:40.574Z,20.80
2022-08-11T02:29:19.653Z,19.63
2022-08-11T02:32:28.825Z,18.87
2022-08-11T02:35:11.326Z,19.53
2022-08-11T02:37:51.778Z,21.17
2022-08-11T02:40:32.378Z,20.50
2022-08-11T02:43:18.991Z,22.20
2022-08-11T02:45:57.941Z,22.00
2022-08-11T02:49:07.250Z,19.17
2022-08-11T02:51:46.107Z,20.53
2022-08-11T02:54:26.596Z,17.30
2022-08-11T02:57:03.753Z,19.33
2022-08-11T02:59:51.717Z,18.80
2022-08-11T03:02:34.988Z,20.23
2022-08-11T03:05:33.347Z,23.17
2022-08-11T03:08:20.618Z,21.27
2022-08-11T03:11:26.752Z,21.07
2022-08-11T03:14:28.965Z,24.60
2022-08-11T03:17:05.952Z,19.70
2022-08-11T03:19:56.687Z,17.87
2022-08-11T03:22:31.558Z,20.27
2022-08-11T03:25:04.551Z,24.80
2022-08-11T03:27:51.082Z,21.63
2022-08-11T03:30:27.099Z,21.40
2022-08-11T03:33:40.682Z,21.87
2022-08-11T03:36:23.122Z,20.20
2022-08-11T03:39:10.121Z,20.40
2022-08-11T03:42:02.139Z,19.90
2022-08-11T03:45:01.093Z,19.50
2022-08-11T03:47:55.543Z,16.93
2022-08-11T03:50:54.454Z,19.93
2022-08-11T03:53:46.102Z,24.90
2022-08-11T03:56:58.852Z,20.43
2022-08-11T04:00:22.443Z,21.73
2022-08-11T04:03:31.455Z,22.07
2022-08-11T04:06:40.367Z,17.57
2022-08-11T04:09:59.747Z,21.30
2022-08-11T04:13:08.664Z,23.50
2022-08-11T04:16:11.610Z,24.50
2022-08-11T04:19:44.191Z,20.73
2022-08-11T04:23:03.488Z,23.47
2022-08-11T04:25:58.224Z,25.33
2022-08-11T04:29:15.052Z,21.97
2022-08-11T04:32:02.829Z,19.77
2022-08-11T04:35:17.615Z,20.07
2022-08-11T04:38:32.524Z,22.43
2022-08-11T04:42:04.558Z,20.53
2022-08-11T04:45:37.478Z,20.37
2022-08-11T04:48:44.882Z,24.87
2022-08-11T04:52:02.269Z,25.60
2022-08-11T04:55:09.613Z,19.93
2022-08-11T04:58:05.783Z,21.13
2022-08-11T05:01:11.131Z,22.50
2022-08-11T05:04:33.372Z,26.67
2022-08-11T05:07:34.415Z,23.40
2022-08-11T05:10:20.919Z,25.97
2022-08-11T05:12:54.644Z,28.20
2022-08-11T05:15:55.137Z,26.87
2022-08-11T05:18:44.334Z,29.63
2022-08-11T05:21:44.502Z,30.70
2022-08-11T05:24:41.791Z,34.60
2022-08-11T05:27:33.264Z,32.33
2022-08-11T05:30:24.794Z,39.00
2022-08-11T05:33:18.392Z,45.40
2022-08-11T05:36:01.567Z,34.03
2022-08-11T05:38:55.251Z,42.73
2022-08-11T05:41:44.667Z,38.07
2022-08-11T05:44:38.016Z,39.17
2022-08-11T05:47:24.927Z,37.20
2022-08-11T05:50:13.579Z,36.47
2022-08-11T05:53:05.215Z,39.40
2022-08-11T05:56:03.117Z,32.40
2022-08-11T05:58:41.757Z,32.63
2022-08-11T06:01:13.528Z,32.10
2022-08-11T06:04:03.591Z,44.60
2022-08-11T06:06:32.610Z,50.80
2022-08-11T06:09:01.699Z,46.30
2022-08-11T06:11:43.720Z,53.97
2022-08-11T06:14:15.388Z,60.23
2022-08-11T06:16:50.237Z,58.67
2022-08-11T06:19:23.059Z,47.17
2022-08-11T06:21:53.245Z,43.73
2022-08-11T06:24:21.790Z,41.97
2022-08-11T06:29:55.123Z,41.97
2022-08-11T06:32:29.900Z,37.20
2022-08-11T06:35:09.870Z,43.07
2022-08-11T06:37:47.260Z,50.40
2022-08-11T06:40:31.170Z,57.57
2022-08-11T06:43:07.404Z,59.27
2022-08-11T06:45:42.244Z,51.30
2022-08-11T06:48:18.782Z,46.20
2022-08-11T06:51:09.346Z,32.33
2022-08-11T06:54:03.815Z,33.17
2022-08-11T06:57:12.521Z,33.50
2022-08-11T07:00:02.158Z,46.57
2022-08-11T07:02:35.024Z,32.97
2022-08-11T07:05:11.369Z,23.27
2022-08-11T07:08:49.576Z,23.63
2022-08-11T07:12:07.187Z,23.07
2022-08-11T07:15:00.261Z,24.77
2022-08-11T07:17:31.787Z,16.17
2022-08-11T07:20:20.270Z,17.73
2022-08-11T07:23:13.924Z,18.53
2022-08-11T07:26:02.950Z,26.50
2022-08-11T07:28:52.423Z,18.80
2022-08-11T07:31:29.870Z,23.10
2022-08-11T07:34:20.550Z,9.67
2022-08-11T07:36:55.039Z,11.30
2022-08-11T07:39:27.875Z,17.07
2022-08-11T07:41:59.872Z,14.93
2022-08-11T07:44:34.818Z,12.83
2022-08-11T07:47:22.165Z,17.60
2022-08-11T07:50:11.059Z,20.37
2022-08-11T07:52:40.747Z,27.98
2022-08-11T07:55:17.875Z,19.88
2022-08-11T07:58:15.535Z,19.65
2022-08-11T08:01:10.492Z,27.13
2022-08-11T08:04:02.831Z,27.48
2022-08-11T08:06:51.692Z,13.90
2022-08-11T08:09:39.795Z,18.65
2022-08-11T08:12:27.974Z,17.52
2022-08-11T08:15:15.287Z,13.57
2022-08-11T08:18:09.997Z,22.00
2022-08-11T08:20:49.870Z,22.73
2022-08-11T08:23:32.840Z,13.20
2022-08-11T08:26:04.539Z,10.70
2022-08-11T08:28:35.055Z,10.27
2022-08-11T08:31:03.357Z,15.38
2022-08-11T08:33:33.255Z,8.95
2022-08-11T08:36:16.903Z,15.43
2022-08-11T08:38:50.311Z,8.15
2022-08-11T08:41:21.748Z,6.10
2022-08-11T08:44:02.449Z,17.42
2022-08-11T08:46:49.371Z,18.80
2022-08-11T08:49:21.062Z,10.73
2022-08-11T08:52:02.439Z,20.00
2022-08-11T08:54:46.021Z,6.88
2022-08-11T08:57:14.729Z,11.88
2022-08-11T08:59:51.417Z,15.90
2022-08-11T09:02:34.669Z,10.80
2022-08-11T09:05:05.427Z,8.75
2022-08-11T09:07:39.759Z,7.70
2022-08-11T09:10:11.388Z,6.25
2022-08-11T09:12:44.892Z,8.73
2022-08-11T09:15:19.795Z,8.07
2022-08-11T09:17:51.568Z,4.55
2022-08-11T09:20:24.018Z,6.70
2022-08-11T09:24:07.871Z,6.28
2022-08-11T09:26:20.769Z,5.65
2022-08-11T09:28:50.153Z,6.72
2022-08-11T09:31:21.932Z,4.88
2022-08-11T09:33:55.640Z,2.60
2022-08-11T09:36:42.493Z,3.45
2022-08-11T09:39:31.133Z,3.65
2022-08-11T09:42:03.460Z,4.95
2022-08-11T09:44:48.531Z,2.55
2022-08-11T09:47:24.943Z,4.25
2022-08-11T09:50:00.430Z,3.25
2022-08-11T09:52:31.538Z,5.85
2022-08-11T09:55:01.290Z,2.63
2022-08-11T09:57:46.900Z,3.42
2022-08-11T10:00:16.931Z,5.13
2022-08-11T10:02:50.419Z,4.22
2022-08-11T10:05:38.309Z,3.90
2022-08-11T10:08:08.844Z,3.35
2022-08-11T10:10:40.262Z,3.78
2022-08-11T10:14:30.206Z,4.07
2022-08-11T10:16:16.193Z,2.83
2022-08-11T10:18:52.610Z,4.15
2022-08-11T10:21:29.348Z,5.68
2022-08-11T10:24:19.206Z,3.42
2022-08-11T10:27:00.298Z,3.80
2022-08-11T10:29:51.210Z,3.75
2022-08-11T10:32:57.797Z,2.60
2022-08-11T10:35:29.803Z,3.92
2022-08-11T10:38:08.252Z,3.33
2022-08-11T10:41:08.666Z,4.63
2022-08-11T10:44:01.762Z,3.50
2022-08-11T10:46:46.815Z,2.95
2022-08-11T10:49:15.523Z,2.75
2022-08-11T10:52:02.938Z,3.65
2022-08-11T10:54:49.568Z,3.28
2022-08-11T10:57:37.558Z,2.75
2022-08-11T11:00:07.998Z,3.80
2022-08-11T11:02:36.963Z,2.80
2022-08-11T11:05:14.302Z,1.88
2022-08-11T11:08:23.823Z,2.83
2022-08-11T11:10:52.337Z,3.97
2022-08-11T11:13:40.316Z,2.83
2022-08-11T11:16:39.325Z,2.17
2022-08-11T11:19:11.238Z,3.95
2022-08-11T11:21:43.123Z,2.25
2022-08-11T11:24:27.241Z,3.25
2022-08-11T11:27:02.152Z,2.35
2022-08-11T11:29:56.138Z,2.92
2022-08-11T11:32:49.845Z,4.47
2022-08-11T11:35:37.973Z,4.13
2022-08-11T11:38:13.754Z,2.10
2022-08-11T11:40:44.330Z,3.50
2022-08-11T11:43:15.180Z,2.80
2022-08-11T11:45:44.069Z,3.33
2022-08-11T11:48:13.476Z,4.38
2022-08-11T11:50:42.414Z,2.08
2022-08-11T11:53:11.833Z,4.53
2022-08-11T11:55:40.360Z,1.98
2022-08-11T11:58:28.319Z,3.67
2022-08-11T12:01:15.446Z,4.10
2022-08-11T12:03:47.118Z,2.30
2022-08-11T12:06:16.322Z,2.17
2022-08-11T12:08:46.086Z,3.13
2022-08-11T12:11:32.638Z,2.63
2022-08-11T12:14:10.668Z,2.67
2022-08-11T12:16:44.401Z,3.10
2022-08-11T12:19:15.684Z,1.67
2022-08-11T12:22:00.514Z,1.70
2022-08-11T12:24:47.170Z,4.30
2022-08-11T12:27:25.420Z,2.33
2022-08-11T12:29:58.662Z,2.25
2022-08-11T12:32:31.100Z,1.70
2022-08-11T12:35:00.221Z,1.95
2022-08-11T12:37:34.042Z,3.10
2022-08-11T12:40:49.487Z,1.90
2022-08-11T12:43:37.918Z,2.38
2022-08-11T12:46:10.655Z,1.83
2022-08-11T12:49:03.663Z,1.75
2022-08-11T12:52:10.933Z,2.47
2022-08-11T12:54:52.852Z,3.45
2022-08-11T12:57:47.484Z,4.18
2022-08-11T13:00:35.008Z,3.00
2022-08-11T13:03:25.126Z,2.55
2022-08-11T13:05:56.938Z,1.33
2022-08-11T13:08:29.282Z,3.65
2022-08-11T13:11:17.508Z,2.03
2022-08-11T13:13:55.878Z,2.20
2022-08-11T13:16:29.606Z,3.33
2022-08-11T13:19:01.798Z,1.58
2022-08-11T13:21:30.766Z,3.17
2022-08-11T13:24:02.750Z,2.13
2022-08-11T13:26:47.225Z,3.20
2022-08-11T13:29:26.037Z,2.67
2022-08-11T13:31:59.692Z,1.80
2022-08-11T13:34:32.390Z,2.03
2022-08-11T13:37:04.389Z,2.22
2022-08-11T13:39:35.901Z,2.88
2022-08-11T13:42:06.060Z,1.88
2022-08-11T13:44:38.823Z,2.67
2022-08-11T13:47:09.333Z,1.45
2022-08-11T13:49:41.539Z,5.20
2022-08-11T13:52:13.994Z,3.40
2022-08-11T13:54:43.787Z,4.43
2022-08-11T13:58:07.564Z,1.50
2022-08-11T14:00:23.479Z,2.22
2022-08-11T14:02:58.501Z,3.80
2022-08-11T14:05:34.051Z,4.05
2022-08-11T14:08:06.111Z,1.52
2022-08-11T14:10:37.596Z,3.85
2022-08-11T14:13:28.887Z,3.92
2022-08-11T14:16:18.495Z,2.40
2022-08-11T14:18:48.874Z,2.28
2022-08-11T14:21:37.194Z,1.83
2022-08-11T14:24:06.246Z,3.40
2022-08-11T14:26:38.919Z,1.98
2022-08-11T14:29:10.784Z,4.82
2022-08-11T14:31:42.098Z,3.83
2022-08-11T14:34:12.620Z,3.08
2022-08-11T14:36:46.580Z,2.13
2022-08-11T14:39:21.038Z,2.92
2022-08-11T14:42:12.131Z,1.60
2022-08-11T14:45:16.669Z,4.05
2022-08-11T14:47:48.875Z,1.55
2022-08-11T14:50:23.971Z,5.78
2022-08-11T14:52:57.368Z,2.92
2022-08-11T14:55:47.137Z,4.40
2022-08-11T14:58:19.357Z,3.00
2022-08-11T15:00:48.623Z,2.85
2022-08-11T15:03:16.451Z,1.50
2022-08-11T15:05:56.107Z,3.90
2022-08-11T15:08:49.073Z,2.85
2022-08-11T15:11:36.877Z,2.33
2022-08-11T15:14:09.052Z,2.47
2022-08-11T15:16:57.423Z,1.30
2022-08-11T15:19:40.381Z,1.58
2022-08-11T15:22:28.184Z,1.25
2022-08-11T15:25:00.016Z,1.23
2022-08-11T15:27:49.378Z,1.70
2022-08-11T15:30:35.262Z,2.60
2022-08-11T15:33:28.455Z,2.33
2022-08-11T15:36:16.119Z,3.92
2022-08-11T15:38:54.906Z,2.35
2022-08-11T15:41:58.196Z,1.27
2022-08-11T15:45:06.242Z,3.10
2022-08-11T15:47:45.968Z,2.22
2022-08-11T15:50:23.248Z,3.05
2022-08-11T15:52:58.101Z,2.22
2022-08-11T15:55:27.066Z,4.05
2022-08-11T15:58:15.599Z,1.75
2022-08-11T16:01:08.851Z,3.08
2022-08-11T16:04:07.735Z,1.75
2022-08-11T16:06:54.235Z,1.35
2022-08-11T16:09:30.386Z,2.88
2022-08-11T16:12:16.003Z,3.08
2022-08-11T16:15:07.182Z,1.70
2022-08-11T16:17:50.411Z,1.85
2022-08-11T16:20:23.655Z,4.88
2022-08-11T16:23:01.420Z,3.83
2022-08-11T16:27:03.581Z,1.52
2022-08-11T16:28:26.175Z,1.65
2022-08-11T16:30:57.856Z,2.15
2022-08-11T16:33:50.189Z,2.92
2022-08-11T16:36:34.082Z,3.47
2022-08-11T16:39:04.898Z,2.85
2022-08-11T16:41:58.726Z,2.35
2022-08-11T16:44:47.321Z,4.03
2022-08-11T16:47:38.894Z,2.97
2022-08-11T16:50:10.633Z,3.70
2022-08-11T16:52:42.504Z,2.83
2022-08-11T16:55:11.091Z,7.97
2022-08-11T16:57:59.435Z,5.57
2022-08-11T17:00:29.570Z,6.13
2022-08-11T17:03:20.167Z,11.77
2022-08-11T17:06:11.812Z,7.72
2022-08-11T17:09:05.208Z,7.75
2022-08-11T17:11:59.438Z,3.97
2022-08-11T17:14:36.701Z,3.95
2022-08-11T17:17:08.891Z,2.45
2022-08-11T17:20:39.956Z,2.42
2022-08-11T17:22:48.975Z,4.80
2022-08-11T17:25:18.454Z,3.33
2022-08-11T17:27:48.535Z,2.60
2022-08-11T17:30:17.435Z,3.00
2022-08-11T17:33:09.314Z,4.00
2022-08-11T17:35:44.486Z,5.03
2022-08-11T17:38:16.058Z,3.28
2022-08-11T17:41:04.632Z,2.15
2022-08-11T17:43:51.403Z,2.45
2022-08-11T17:46:38.324Z,2.33
2022-08-11T17:49:09.358Z,4.95
2022-08-11T17:51:58.459Z,3.22
2022-08-11T17:54:44.760Z,1.70
2022-08-11T17:57:32.603Z,3.67
2022-08-11T18:00:01.976Z,2.42
2022-08-11T18:02:51.082Z,3.08
2022-08-11T18:05:21.903Z,2.72
2022-08-11T18:08:12.649Z,2.15
2022-08-11T18:11:00.162Z,6.93
2022-08-11T18:13:49.121Z,2.75
2022-08-11T18:16:35.303Z,5.43
2022-08-11T18:19:21.192Z,4.88
2022-08-11T18:22:15.410Z,2.92
2022-08-11T18:25:09.133Z,3.25
2022-08-11T18:27:59.833Z,2.63
2022-08-11T18:30:47.072Z,3.65
2022-08-11T18:34:03.429Z,1.55
2022-08-11T18:36:43.112Z,2.25
2022-08-11T18:39:32.442Z,3.40
2022-08-11T18:42:29.567Z,4.47
2022-08-11T18:45:22.258Z,2.95
2022-08-11T18:48:11.476Z,3.88
2022-08-11T18:51:29.793Z,3.58
2022-08-11T18:54:12.160Z,3.38
2022-08-11T18:56:58.878Z,2.33
2022-08-11T18:59:51.256Z,3.55
2022-08-11T19:02:48.557Z,4.68
2022-08-11T19:06:05.977Z,4.05
2022-08-11T19:08:49.398Z,3.35
2022-08-11T19:11:36.500Z,3.97
2022-08-11T19:14:30.737Z,4.97
2022-08-11T19:17:44.981Z,4.07
2022-08-11T19:20:30.190Z,2.30
2022-08-11T19:23:17.301Z,3.58
2022-08-11T19:26:04.346Z,3.08
2022-08-11T19:28:52.914Z,2.50
2022-08-11T19:31:44.380Z,3.05
2022-08-11T19:34:34.619Z,3.70
2022-08-11T19:37:24.931Z,4.05
2022-08-11T19:40:14.243Z,3.42
2022-08-11T19:43:02.188Z,5.93
2022-08-11T19:45:52.335Z,4.00
2022-08-11T19:48:41.072Z,5.47
2022-08-11T19:51:29.490Z,3.78
2022-08-11T19:54:16.582Z,3.95
2022-08-11T19:57:04.101Z,5.15
2022-08-11T19:59:51.549Z,4.35
2022-08-11T20:02:38.712Z,5.20
2022-08-11T20:05:26.782Z,6.03
2022-08-11T20:08:16.365Z,4.70
2022-08-11T20:11:06.360Z,3.78
2022-08-11T20:13:54.143Z,6.10
2022-08-11T20:16:42.738Z,3.70
2022-08-11T20:19:55.370Z,3.80
2022-08-11T20:22:35.845Z,4.10
2022-08-11T20:25:25.518Z,3.83
2022-08-11T20:28:12.673Z,3.63
2022-08-11T20:31:00.234Z,5.38
2022-08-11T20:33:45.988Z,4.45
2022-08-11T20:36:34.079Z,7.63
2022-08-11T20:39:21.169Z,4.22
2022-08-11T20:42:11.085Z,5.38
2022-08-11T20:44:59.807Z,5.25
2022-08-11T20:50:55.307Z,7.70
2022-08-11T20:53:44.528Z,6.03
2022-08-11T20:56:30.991Z,5.57
2022-08-11T20:59:22.006Z,5.72
2022-08-11T21:02:10.515Z,4.88
2022-08-11T21:05:00.259Z,4.90
2022-08-11T21:07:57.064Z,6.43
2022-08-11T21:10:50.631Z,8.70
2022-08-11T21:13:39.445Z,5.40
2022-08-11T21:16:28.838Z,5.55
2022-08-11T21:19:55.103Z,5.47
2022-08-11T21:22:36.259Z,7.13
2022-08-11T21:25:24.556Z,5.78
2022-08-11T21:28:11.732Z,7.05
2022-08-11T21:30:58.204Z,7.63
2022-08-11T21:33:48.090Z,6.22
2022-08-11T21:36:35.348Z,4.40
2022-08-11T21:39:25.202Z,7.03
2022-08-11T21:42:12.777Z,5.90
2022-08-11T21:45:01.035Z,5.18
2022-08-11T21:47:48.529Z,6.68
2022-08-11T21:50:35.430Z,7.20
2022-08-11T21:53:22.386Z,5.45
2022-08-11T21:56:10.434Z,7.43
2022-08-11T21:58:57.849Z,7.55
2022-08-11T22:01:52.868Z,6.90
2022-08-11T22:04:40.066Z,5.07
2022-08-11T22:07:27.517Z,7.07
2022-08-11T22:10:27.356Z,5.20
2022-08-11T22:13:19.419Z,5.63
2022-08-11T22:16:05.289Z,5.23
2022-08-11T22:18:54.459Z,5.20
2022-08-11T22:22:01.604Z,5.93
2022-08-11T22:24:50.832Z,4.73
2022-08-11T22:27:36.682Z,6.37
2022-08-11T22:30:24.465Z,5.00
2022-08-11T22:33:11.437Z,5.07
2022-08-11T22:35:59.344Z,7.17
2022-08-11T22:38:46.150Z,4.83
2022-08-11T22:41:33.338Z,6.67
2022-08-11T22:44:19.083Z,5.53
2022-08-11T22:47:04.898Z,4.77
2022-08-11T22:49:57.429Z,4.80
2022-08-11T22:52:45.411Z,6.40
2022-08-11T22:55:32.372Z,4.80
2022-08-11T22:58:21.158Z,5.70
2022-08-11T23:01:07.704Z,5.10
2022-08-11T23:03:55.149Z,4.60
2022-08-11T23:06:41.886Z,4.43
2022-08-11T23:09:28.602Z,5.10
2022-08-11T23:12:14.528Z,8.23
2022-08-11T23:15:02.839Z,5.93
2022-08-11T23:17:49.329Z,4.70
2022-08-11T23:20:44.956Z,4.43
2022-08-11T23:23:36.367Z,4.50
2022-08-11T23:26:22.494Z,4.97
2022-08-11T23:29:08.320Z,4.80
2022-08-11T23:31:57.169Z,4.90
2022-08-11T23:35:04.252Z,4.37
2022-08-11T23:37:51.002Z,4.73
2022-08-11T23:40:36.644Z,4.37
2022-08-11T23:43:23.158Z,5.37
2022-08-11T23:46:08.717Z,5.17
2022-08-11T23:48:56.798Z,5.47
2022-08-11T23:51:44.081Z,6.10
2022-08-11T23:54:36.434Z,7.43
2022-08-11T23:57:23.480Z,5.90
